createdAt,value
2023-01-30T00:00:54.741Z,8.03
2023-01-30T00:03:22.015Z,10.13
2023-01-30T00:05:48.540Z,5.83
2023-01-30T00:08:15.605Z,9.80
2023-01-30T00:10:42.342Z,9.90
2023-01-30T00:13:09.155Z,9.33
2023-01-30T00:15:36.235Z,8.00
2023-01-30T00:18:02.758Z,7.43
2023-01-30T00:20:29.254Z,7.50
2023-01-30T00:23:00.815Z,8.07
2023-01-30T00:25:28.593Z,8.00
2023-01-30T00:27:55.149Z,9.37
2023-01-30T00:30:22.527Z,6.40
2023-01-30T00:32:54.206Z,6.90
2023-01-30T00:35:20.606Z,10.70
2023-01-30T00:37:47.009Z,6.93
2023-01-30T00:40:14.924Z,9.83
2023-01-30T00:42:59.960Z,7.07
2023-01-30T00:45:44.782Z,7.37
2023-01-30T00:48:11.414Z,6.63
2023-01-30T00:50:43.736Z,7.90
2023-01-30T00:53:13.200Z,9.23
2023-01-30T00:55:41.000Z,8.03
2023-01-30T00:58:07.749Z,8.80
2023-01-30T01:00:34.610Z,8.13
2023-01-30T01:03:01.224Z,7.97
2023-01-30T01:05:28.374Z,8.43
2023-01-30T01:07:55.515Z,8.90
2023-01-30T01:10:23.953Z,8.90
2023-01-30T01:12:54.132Z,6.67
2023-01-30T01:15:22.783Z,10.67
2023-01-30T01:17:49.706Z,7.17
2023-01-30T01:20:17.055Z,7.93
2023-01-30T01:22:43.795Z,7.87
2023-01-30T01:25:11.147Z,8.53
2023-01-30T01:27:39.430Z,7.17
2023-01-30T01:30:06.395Z,7.43
2023-01-30T01:32:32.938Z,8.00
2023-01-30T01:34:59.397Z,7.90
2023-01-30T01:37:25.835Z,6.90
2023-01-30T01:40:10.612Z,9.73
2023-01-30T01:42:38.544Z,8.60
2023-01-30T01:45:14.504Z,8.83
2023-01-30T01:47:46.526Z,10.90
2023-01-30T01:50:17.636Z,6.33
2023-01-30T01:52:44.892Z,7.43
2023-01-30T01:55:11.613Z,8.63
2023-01-30T01:57:49.549Z,7.87
2023-01-30T02:00:19.300Z,7.23
2023-01-30T02:02:54.527Z,7.40
2023-01-30T02:05:21.280Z,7.97
2023-01-30T02:08:34.208Z,7.13
2023-01-30T02:11:09.926Z,8.97
2023-01-30T02:13:37.741Z,8.03
2023-01-30T02:16:06.638Z,7.40
2023-01-30T02:18:35.391Z,9.07
2023-01-30T02:21:20.222Z,9.10
2023-01-30T02:24:06.331Z,7.93
2023-01-30T02:26:50.180Z,7.43
2023-01-30T02:29:55.810Z,15.17
2023-01-30T02:32:36.497Z,7.63
2023-01-30T02:35:24.230Z,7.40
2023-01-30T02:38:02.194Z,8.77
2023-01-30T02:40:58.611Z,7.30
2023-01-30T02:43:56.578Z,7.90
2023-01-30T02:46:48.983Z,7.53
2023-01-30T02:49:34.688Z,7.50
2023-01-30T02:52:02.498Z,7.93
2023-01-30T02:54:29.133Z,6.37
2023-01-30T02:56:58.888Z,9.57
2023-01-30T02:59:39.234Z,8.67
2023-01-30T03:02:24.251Z,8.43
2023-01-30T03:05:17.358Z,8.47
2023-01-30T03:07:57.008Z,7.53
2023-01-30T03:10:29.706Z,7.37
2023-01-30T03:13:07.597Z,6.27
2023-01-30T03:16:06.041Z,7.70
2023-01-30T03:18:32.610Z,7.33
2023-01-30T03:21:05.506Z,8.03
2023-01-30T03:23:31.917Z,7.60
2023-01-30T03:25:59.474Z,8.37
2023-01-30T03:28:27.013Z,9.43
2023-01-30T03:30:53.571Z,7.83
2023-01-30T03:33:20.081Z,8.10
2023-01-30T03:35:49.492Z,7.57
2023-01-30T03:38:16.451Z,6.27
2023-01-30T03:40:42.951Z,10.20
2023-01-30T03:43:09.538Z,12.00
2023-01-30T03:45:37.669Z,8.60
2023-01-30T03:48:04.914Z,9.70
2023-01-30T03:50:32.351Z,7.87
2023-01-30T03:53:00.291Z,9.77
2023-01-30T03:55:26.865Z,7.57
2023-01-30T03:57:57.410Z,7.60
2023-01-30T04:00:26.770Z,7.97
2023-01-30T04:02:54.822Z,7.73
2023-01-30T04:05:21.248Z,9.23
2023-01-30T04:07:58.940Z,8.93
2023-01-30T04:10:26.856Z,9.13
2023-01-30T04:12:54.639Z,8.00
2023-01-30T04:15:22.261Z,8.43
2023-01-30T04:17:51.269Z,7.20
2023-01-30T04:20:38.740Z,7.53
2023-01-30T04:23:05.180Z,9.83
2023-01-30T04:25:31.646Z,8.83
2023-01-30T04:27:58.578Z,8.53
2023-01-30T04:30:29.222Z,7.33
2023-01-30T04:33:12.210Z,7.53
2023-01-30T04:35:38.717Z,6.73
2023-01-30T04:38:06.413Z,6.87
2023-01-30T04:40:32.891Z,8.27
2023-01-30T04:42:59.380Z,8.33
2023-01-30T04:45:46.710Z,8.07
2023-01-30T04:48:13.857Z,8.17
2023-01-30T04:50:42.346Z,7.70
2023-01-30T04:53:09.419Z,7.73
2023-01-30T04:55:36.500Z,10.20
2023-01-30T04:58:03.689Z,8.83
2023-01-30T05:00:30.590Z,8.23
2023-01-30T05:03:00.002Z,6.70
2023-01-30T05:05:27.518Z,12.10
2023-01-30T05:07:54.958Z,8.20
2023-01-30T05:10:21.532Z,8.00
2023-01-30T05:12:48.014Z,6.67
2023-01-30T05:15:14.507Z,8.87
2023-01-30T05:17:43.046Z,7.80
2023-01-30T05:20:11.585Z,8.93
2023-01-30T05:22:38.125Z,14.13
2023-01-30T05:25:04.921Z,8.93
2023-01-30T05:27:31.335Z,12.87
2023-01-30T05:29:57.794Z,11.40
2023-01-30T05:32:25.570Z,9.43
2023-01-30T05:34:51.970Z,12.23
2023-01-30T05:37:18.368Z,12.33
2023-01-30T05:39:44.989Z,8.57
2023-01-30T05:42:11.417Z,8.13
2023-01-30T05:44:37.849Z,14.13
2023-01-30T05:47:04.308Z,14.60
2023-01-30T05:49:30.746Z,9.47
2023-01-30T05:51:57.533Z,17.43
2023-01-30T05:54:24.313Z,13.33
2023-01-30T05:56:51.055Z,11.90
2023-01-30T05:59:20.997Z,12.13
2023-01-30T06:01:47.668Z,11.53
2023-01-30T06:04:14.417Z,11.30
2023-01-30T06:06:40.806Z,15.80
2023-01-30T06:09:07.281Z,13.70
2023-01-30T06:11:33.768Z,19.50
2023-01-30T06:14:00.364Z,26.93
2023-01-30T06:16:27.372Z,13.00
2023-01-30T06:18:54.245Z,19.40
2023-01-30T06:21:20.655Z,22.57
2023-01-30T06:23:47.296Z,19.73
2023-01-30T06:26:13.961Z,19.93
2023-01-30T06:28:40.387Z,24.00
2023-01-30T06:31:07.901Z,13.00
2023-01-30T06:33:34.994Z,27.10
2023-01-30T06:36:01.498Z,18.33
2023-01-30T06:38:27.985Z,19.00
2023-01-30T06:40:54.419Z,15.90
2023-01-30T06:43:20.862Z,22.17
2023-01-30T06:45:47.365Z,13.43
2023-01-30T06:48:14.003Z,13.00
2023-01-30T06:50:40.427Z,18.13
2023-01-30T06:53:08.338Z,17.97
2023-01-30T06:55:35.663Z,13.77
2023-01-30T06:58:13.515Z,12.10
2023-01-30T07:00:42.281Z,15.70
2023-01-30T07:03:14.574Z,13.60
2023-01-30T07:05:42.288Z,12.63
2023-01-30T07:08:08.959Z,17.70
2023-01-30T07:10:35.972Z,18.67
2023-01-30T07:13:03.786Z,15.17
2023-01-30T07:15:30.840Z,10.60
2023-01-30T07:17:57.290Z,15.27
2023-01-30T07:20:23.977Z,12.23
2023-01-30T07:22:54.930Z,10.40
2023-01-30T07:25:24.216Z,13.40
2023-01-30T07:27:56.295Z,17.60
2023-01-30T07:30:22.794Z,9.73
2023-01-30T07:32:50.948Z,9.80
2023-01-30T07:35:17.486Z,10.33
2023-01-30T07:37:48.656Z,10.47
2023-01-30T07:40:15.888Z,10.50
2023-01-30T07:42:42.384Z,12.90
2023-01-30T07:45:09.323Z,10.20
2023-01-30T07:47:35.820Z,14.07
2023-01-30T07:50:02.719Z,13.50
2023-01-30T07:52:29.146Z,10.93
2023-01-30T07:54:55.567Z,11.23
2023-01-30T07:57:22.040Z,11.93
2023-01-30T07:59:48.473Z,14.60
2023-01-30T08:02:14.926Z,15.33
2023-01-30T08:04:41.367Z,9.30
2023-01-30T08:07:07.806Z,11.97
2023-01-30T08:09:34.310Z,12.37
2023-01-30T08:12:00.716Z,13.67
2023-01-30T08:14:28.705Z,8.23
2023-01-30T08:16:57.399Z,11.73
2023-01-30T08:19:23.942Z,11.10
2023-01-30T08:21:50.376Z,10.10
2023-01-30T08:24:16.798Z,15.13
2023-01-30T08:26:43.278Z,9.40
2023-01-30T08:29:09.729Z,11.27
2023-01-30T08:31:36.294Z,12.90
2023-01-30T08:34:02.767Z,15.37
2023-01-30T08:36:29.200Z,12.57
2023-01-30T08:38:55.614Z,12.83
2023-01-30T08:41:22.027Z,12.43
2023-01-30T08:43:48.429Z,11.63
2023-01-30T08:46:15.018Z,8.13
2023-01-30T08:48:49.526Z,9.93
2023-01-30T08:51:16.739Z,10.73
2023-01-30T08:53:43.144Z,10.53
2023-01-30T08:56:09.681Z,11.67
2023-01-30T08:58:36.152Z,12.87
2023-01-30T09:01:07.048Z,11.57
2023-01-30T09:03:33.484Z,10.80
2023-01-30T09:05:59.894Z,10.20
2023-01-30T09:08:27.096Z,11.60
2023-01-30T09:10:58.653Z,6.90
2023-01-30T09:13:26.624Z,11.47
2023-01-30T09:15:59.398Z,11.20
2023-01-30T09:18:31.058Z,7.97
2023-01-30T09:21:05.482Z,9.10
2023-01-30T09:23:38.258Z,7.33
2023-01-30T09:26:08.477Z,10.50
2023-01-30T09:28:38.803Z,11.23
2023-01-30T09:31:05.390Z,8.00
2023-01-30T09:33:31.918Z,8.50
2023-01-30T09:35:58.579Z,6.83
2023-01-30T09:38:25.076Z,7.30
2023-01-30T09:41:00.681Z,6.90
2023-01-30T09:43:48.980Z,6.80
2023-01-30T09:46:27.915Z,10.83
2023-01-30T09:49:22.110Z,6.70
2023-01-30T09:52:21.291Z,8.07
2023-01-30T09:54:47.934Z,7.13
2023-01-30T09:57:22.574Z,6.70
2023-01-30T10:00:11.205Z,9.67
2023-01-30T10:02:52.065Z,9.60
2023-01-30T10:05:18.919Z,5.77
2023-01-30T10:08:03.229Z,8.40
2023-01-30T10:11:08.871Z,7.97
2023-01-30T10:14:17.557Z,6.30
2023-01-30T10:16:47.216Z,7.00
2023-01-30T10:19:54.200Z,5.30
2023-01-30T10:22:41.644Z,5.40
2023-01-30T10:25:45.204Z,5.53
2023-01-30T10:28:26.850Z,8.03
2023-01-30T10:31:02.101Z,5.47
2023-01-30T10:33:33.722Z,8.17
2023-01-30T10:36:08.074Z,6.17
2023-01-30T10:38:48.473Z,6.73
2023-01-30T10:41:26.464Z,7.30
2023-01-30T10:44:07.800Z,7.10
2023-01-30T10:46:52.351Z,6.50
2023-01-30T10:49:31.287Z,6.20
2023-01-30T10:52:27.496Z,5.90
2023-01-30T10:55:13.686Z,8.30
2023-01-30T10:57:43.048Z,6.13
2023-01-30T11:00:22.436Z,6.47
2023-01-30T11:03:08.099Z,7.03
2023-01-30T11:05:40.132Z,10.00
2023-01-30T11:08:18.138Z,7.57
2023-01-30T11:10:44.542Z,8.30
2023-01-30T11:13:33.834Z,7.77
2023-01-30T11:16:08.853Z,7.17
2023-01-30T11:19:18.672Z,8.07
2023-01-30T11:21:44.049Z,5.77
2023-01-30T11:24:17.494Z,6.20
2023-01-30T11:26:47.892Z,5.90
2023-01-30T11:29:33.115Z,6.53
2023-01-30T11:32:28.021Z,8.00
2023-01-30T11:35:21.543Z,5.40
2023-01-30T11:37:48.256Z,10.73
2023-01-30T11:40:18.141Z,7.17
2023-01-30T11:42:47.465Z,6.17
2023-01-30T11:45:18.450Z,9.00
2023-01-30T11:47:57.801Z,5.70
2023-01-30T11:50:42.417Z,11.33
2023-01-30T11:53:20.623Z,6.03
2023-01-30T11:56:01.898Z,7.37
2023-01-30T11:58:34.878Z,6.23
2023-01-30T12:01:02.362Z,6.50
2023-01-30T12:03:30.269Z,11.50
2023-01-30T12:05:58.875Z,7.63
2023-01-30T12:08:43.592Z,7.73
2023-01-30T12:11:29.756Z,6.13
2023-01-30T12:14:35.367Z,7.83
2023-01-30T12:17:15.852Z,5.57
2023-01-30T12:19:56.946Z,5.30
2023-01-30T12:22:40.858Z,6.27
2023-01-30T12:25:23.282Z,6.37
2023-01-30T12:33:06.726Z,8.03
2023-01-30T12:35:54.722Z,5.97
2023-01-30T12:38:24.026Z,11.60
2023-01-30T12:41:28.384Z,6.00
2023-01-30T12:44:18.593Z,5.23
2023-01-30T12:47:02.506Z,5.50
2023-01-30T12:50:01.344Z,4.93
2023-01-30T12:52:50.953Z,4.83
2023-01-30T12:55:29.522Z,5.20
2023-01-30T12:58:05.382Z,5.63
2023-01-30T13:00:40.218Z,6.97
2023-01-30T13:03:26.615Z,5.67
2023-01-30T13:06:11.929Z,4.50
2023-01-30T13:08:56.512Z,4.93
2023-01-30T13:11:47.988Z,5.00
2023-01-30T13:14:24.102Z,5.43
2023-01-30T13:17:11.978Z,9.13
2023-01-30T13:19:48.570Z,7.83
2023-01-30T13:23:09.049Z,9.73
2023-01-30T13:25:49.873Z,14.53
2023-01-30T13:28:27.983Z,4.87
2023-01-30T13:30:56.225Z,12.63
2023-01-30T13:33:28.347Z,16.97
2023-01-30T13:36:06.771Z,8.90
2023-01-30T13:38:35.874Z,17.33
2023-01-30T13:41:04.040Z,13.53
2023-01-30T13:43:39.953Z,10.73
2023-01-30T13:46:10.032Z,7.20
2023-01-30T13:49:00.668Z,20.60
2023-01-30T13:51:41.676Z,10.93
2023-01-30T13:54:21.665Z,15.00
2023-01-30T13:57:28.618Z,10.70
2023-01-30T14:00:17.084Z,8.73
2023-01-30T14:03:05.452Z,10.83
2023-01-30T14:06:05.752Z,6.00
2023-01-30T14:08:37.942Z,15.93
2023-01-30T14:11:04.635Z,7.23
2023-01-30T14:13:32.362Z,9.57
2023-01-30T14:16:05.297Z,11.23
2023-01-30T14:18:38.678Z,5.87
2023-01-30T14:21:21.215Z,10.80
2023-01-30T14:24:00.575Z,9.80
2023-01-30T14:26:48.592Z,6.57
2023-01-30T14:29:42.720Z,6.70
2023-01-30T14:32:12.801Z,9.90
2023-01-30T14:35:03.776Z,8.40
2023-01-30T14:37:39.327Z,11.20
2023-01-30T14:40:31.556Z,6.60
2023-01-30T14:43:14.750Z,5.30
2023-01-30T14:46:02.835Z,6.90
2023-01-30T14:48:54.268Z,7.50
2023-01-30T14:51:38.979Z,4.70
2023-01-30T14:54:14.619Z,11.10
2023-01-30T14:57:01.370Z,6.23
2023-01-30T14:59:27.762Z,10.20
2023-01-30T15:01:58.464Z,5.53
2023-01-30T15:04:29.696Z,6.17
2023-01-30T15:06:58.701Z,28.10
2023-01-30T15:09:28.296Z,9.70
2023-01-30T15:12:05.660Z,4.83
2023-01-30T15:14:43.488Z,7.50
2023-01-30T15:17:32.384Z,12.20
2023-01-30T15:20:06.632Z,5.93
2023-01-30T15:23:04.212Z,7.23
2023-01-30T15:25:58.786Z,4.77
2023-01-30T15:28:54.937Z,5.23
2023-01-30T15:31:23.484Z,4.80
2023-01-30T15:33:52.375Z,14.33
2023-01-30T15:36:32.919Z,10.20
2023-01-30T15:39:05.525Z,4.97
2023-01-30T15:41:43.138Z,6.30
2023-01-30T15:44:48.460Z,10.00
2023-01-30T15:47:54.663Z,10.97
2023-01-30T15:50:21.503Z,8.40
2023-01-30T15:52:50.972Z,9.27
2023-01-30T15:55:24.273Z,21.70
2023-01-30T15:57:57.144Z,6.83
2023-01-30T16:00:27.684Z,9.00
2023-01-30T16:02:55.598Z,14.53
2023-01-30T16:05:25.445Z,20.50
2023-01-30T16:07:54.234Z,13.97
2023-01-30T16:10:30.657Z,5.40
2023-01-30T16:12:58.375Z,9.67
2023-01-30T16:15:39.735Z,10.70
2023-01-30T16:18:15.716Z,14.17
2023-01-30T16:21:02.013Z,5.33
2023-01-30T16:23:37.729Z,9.97
2023-01-30T16:26:08.234Z,10.13
2023-01-30T16:28:35.364Z,8.00
2023-01-30T16:31:05.991Z,7.43
2023-01-30T16:33:36.558Z,10.10
2023-01-30T16:36:26.453Z,8.03
2023-01-30T16:38:54.456Z,19.17
2023-01-30T16:41:30.958Z,7.63
2023-01-30T16:44:18.045Z,7.50
2023-01-30T16:46:59.346Z,11.10
2023-01-30T16:49:37.507Z,9.30
2023-01-30T16:52:16.958Z,6.80
2023-01-30T16:54:51.213Z,9.53
2023-01-30T16:57:36.632Z,5.87
2023-01-30T17:00:07.418Z,8.47
2023-01-30T17:02:36.510Z,7.90
2023-01-30T17:05:30.500Z,6.93
2023-01-30T17:07:58.131Z,7.17
2023-01-30T17:10:40.060Z,8.20
2023-01-30T17:13:35.973Z,5.07
2023-01-30T17:16:34.434Z,10.53
2023-01-30T17:19:01.817Z,7.57
2023-01-30T17:21:32.244Z,9.40
2023-01-30T17:24:04.786Z,6.03
2023-01-30T17:26:31.855Z,9.40
2023-01-30T17:28:58.808Z,8.50
2023-01-30T17:32:54.540Z,12.13
2023-01-30T17:35:21.371Z,10.17
2023-01-30T17:38:18.991Z,7.90
2023-01-30T17:40:46.014Z,13.37
2023-01-30T17:43:13.037Z,16.27
2023-01-30T17:45:39.703Z,17.73
2023-01-30T17:48:06.416Z,15.50
2023-01-30T17:50:32.942Z,13.07
2023-01-30T17:52:59.507Z,11.70
2023-01-30T17:55:26.120Z,364.27
2023-01-30T17:57:53.077Z,174.63
2023-01-30T18:00:21.457Z,109.60
2023-01-30T18:02:48.352Z,92.20
2023-01-30T18:05:14.832Z,73.83
2023-01-30T18:07:42.365Z,68.13
2023-01-30T18:10:14.954Z,66.10
2023-01-30T18:12:41.648Z,90.53
2023-01-30T18:15:09.528Z,57.83
2023-01-30T18:17:41.553Z,49.40
2023-01-30T18:20:09.474Z,57.57
2023-01-30T18:22:35.877Z,66.33
2023-01-30T18:25:02.299Z,51.40
2023-01-30T18:27:28.759Z,48.83
2023-01-30T18:29:55.268Z,47.80
2023-01-30T18:32:21.660Z,48.40
2023-01-30T18:34:48.113Z,47.40
2023-01-30T18:37:14.621Z,46.07
2023-01-30T18:39:41.454Z,42.77
2023-01-30T18:42:08.111Z,43.27
2023-01-30T18:44:35.658Z,44.03
2023-01-30T18:47:02.198Z,39.47
2023-01-30T18:49:29.962Z,35.73
2023-01-30T18:51:56.431Z,40.83
2023-01-30T18:54:22.872Z,36.63
2023-01-30T18:56:49.381Z,53.03
2023-01-30T18:59:15.807Z,39.03
2023-01-30T19:01:42.637Z,39.33
2023-01-30T19:04:11.118Z,46.30
2023-01-30T19:06:41.741Z,35.73
2023-01-30T19:09:11.789Z,34.03
2023-01-30T19:11:56.728Z,36.60
2023-01-30T19:14:24.222Z,32.60
2023-01-30T19:16:51.325Z,35.80
2023-01-30T19:19:17.867Z,33.93
2023-01-30T19:21:44.518Z,33.00
2023-01-30T19:24:14.268Z,35.33
2023-01-30T19:26:41.401Z,34.70
2023-01-30T19:29:08.374Z,31.97
2023-01-30T19:31:35.131Z,32.53
2023-01-30T19:34:04.635Z,40.30
2023-01-30T19:36:33.167Z,33.33
2023-01-30T19:39:00.415Z,34.77
2023-01-30T19:41:32.642Z,35.83
2023-01-30T19:44:01.310Z,30.33
2023-01-30T19:46:31.117Z,33.43
2023-01-30T19:48:58.168Z,27.57
2023-01-30T19:51:30.683Z,42.60
2023-01-30T19:54:00.382Z,25.27
2023-01-30T19:56:28.253Z,25.90
2023-01-30T19:58:57.073Z,22.67
2023-01-30T20:01:27.460Z,25.70
2023-01-30T20:03:54.019Z,21.87
2023-01-30T20:09:47.751Z,19.53
2023-01-30T20:12:14.910Z,20.83
2023-01-30T20:14:41.312Z,19.67
2023-01-30T20:17:08.078Z,17.50
2023-01-30T20:19:34.664Z,27.20
2023-01-30T20:22:06.603Z,20.90
2023-01-30T20:24:33.001Z,18.40
2023-01-30T20:26:59.501Z,20.27
2023-01-30T20:29:25.995Z,25.00
2023-01-30T20:31:54.489Z,18.13
2023-01-30T20:34:21.242Z,16.33
2023-01-30T20:36:48.200Z,23.47
2023-01-30T20:39:16.808Z,14.73
2023-01-30T20:41:43.503Z,16.07
2023-01-30T20:44:12.329Z,23.57
2023-01-30T20:46:42.497Z,15.50
2023-01-30T20:49:20.127Z,16.07
2023-01-30T20:51:50.095Z,38.40
2023-01-30T20:54:17.915Z,15.47
2023-01-30T20:56:49.715Z,15.60
2023-01-30T20:59:24.184Z,14.07
2023-01-30T21:01:51.885Z,16.53
2023-01-30T21:04:19.558Z,13.17
2023-01-30T21:06:47.163Z,17.80
2023-01-30T21:09:19.684Z,17.53
2023-01-30T21:11:46.725Z,21.73
2023-01-30T21:14:13.752Z,13.07
2023-01-30T21:16:40.858Z,19.77
2023-01-30T21:19:11.253Z,13.87
2023-01-30T21:21:53.971Z,21.27
2023-01-30T21:24:26.681Z,22.03
2023-01-30T21:26:54.309Z,20.20
2023-01-30T21:29:23.607Z,18.23
2023-01-30T21:31:50.398Z,15.90
2023-01-30T21:34:17.039Z,18.73
2023-01-30T21:36:43.491Z,14.83
2023-01-30T21:39:31.675Z,14.00
2023-01-30T21:42:16.407Z,11.90
2023-01-30T21:44:42.888Z,11.40
2023-01-30T21:47:09.360Z,13.37
2023-01-30T21:49:36.774Z,12.90
2023-01-30T21:52:04.066Z,12.87
2023-01-30T21:54:30.630Z,15.33
2023-01-30T21:56:57.069Z,10.63
2023-01-30T21:59:23.500Z,13.33
2023-01-30T22:01:49.966Z,12.43
2023-01-30T22:04:16.555Z,12.17
2023-01-30T22:06:43.551Z,12.97
2023-01-30T22:09:14.243Z,10.53
2023-01-30T22:11:40.782Z,9.70
2023-01-30T22:14:07.326Z,8.80
2023-01-30T22:16:33.967Z,13.80
2023-01-30T22:19:04.317Z,8.30
2023-01-30T22:21:33.785Z,8.43
2023-01-30T22:24:01.750Z,7.90
2023-01-30T22:26:28.376Z,8.50
2023-01-30T22:28:59.415Z,8.90
2023-01-30T22:31:29.732Z,8.70
2023-01-30T22:33:56.795Z,13.67
2023-01-30T22:36:25.389Z,13.90
2023-01-30T22:38:52.044Z,8.93
2023-01-30T22:41:21.514Z,13.60
2023-01-30T22:43:56.316Z,7.53
2023-01-30T22:46:31.804Z,11.50
2023-01-30T22:49:00.013Z,8.83
2023-01-30T22:51:34.180Z,10.00
2023-01-30T22:54:03.160Z,6.90
2023-01-30T22:56:40.818Z,8.20
2023-01-30T22:59:07.866Z,8.43
2023-01-30T23:01:45.515Z,10.80
2023-01-30T23:04:18.473Z,6.50
2023-01-30T23:06:45.947Z,7.30
2023-01-30T23:09:16.385Z,12.60
2023-01-30T23:12:12.871Z,8.40
2023-01-30T23:14:39.416Z,6.87
2023-01-30T23:17:26.074Z,5.30
2023-01-30T23:19:53.311Z,9.17
2023-01-30T23:22:20.159Z,10.00
2023-01-30T23:24:48.486Z,9.53
2023-01-30T23:27:15.013Z,7.50
2023-01-30T23:29:41.419Z,6.90
2023-01-30T23:32:07.838Z,6.77
2023-01-30T23:34:34.275Z,9.53
2023-01-30T23:37:00.693Z,7.67
2023-01-30T23:39:27.097Z,5.63
2023-01-30T23:41:53.542Z,5.20
2023-01-30T23:44:19.975Z,7.50
2023-01-30T23:46:46.376Z,5.93
2023-01-30T23:49:14.504Z,6.20
2023-01-30T23:51:42.981Z,8.60
2023-01-30T23:54:10.658Z,6.53
2023-01-30T23:56:39.884Z,6.90
2023-01-30T23:59:06.594Z,4.60
